createdAt,value
2018-09-05T00:00:26.646Z,94385.94
2018-09-05T00:02:55.751Z,94387.68
2018-09-05T00:05:24.837Z,94384.86
2018-09-05T00:07:53.437Z,94386.77
2018-09-05T00:10:22.820Z,94388.54
2018-09-05T00:12:51.618Z,94393.64
2018-09-05T00:15:20.804Z,94395.60
2018-09-05T00:17:49.704Z,94399.40
2018-09-05T00:20:18.484Z,94401.38
2018-09-05T00:22:47.221Z,94408.09
2018-09-05T00:25:15.991Z,94412.91
2018-09-05T00:27:44.926Z,94416.44
2018-09-05T00:30:13.649Z,94412.52
2018-09-05T00:32:42.823Z,94408.38
2018-09-05T00:35:11.472Z,94409.44
2018-09-05T00:37:40.059Z,94407.23
2018-09-05T00:40:09.021Z,94404.23
2018-09-05T00:42:37.670Z,94398.34
2018-09-05T00:45:06.769Z,94404.94
2018-09-05T00:47:35.783Z,94395.77
2018-09-05T00:50:04.495Z,94387.87
2018-09-05T00:52:33.169Z,94392.73
2018-09-05T00:55:02.411Z,94398.59
2018-09-05T00:57:31.348Z,94394.78
2018-09-05T01:00:00.409Z,94391.22
2018-09-05T01:02:29.282Z,94393.06
2018-09-05T01:04:58.446Z,94390.63
2018-09-05T01:07:28.626Z,94390.59
2018-09-05T01:09:57.763Z,94395.45
2018-09-05T01:12:26.655Z,94386.05
2018-09-05T01:14:56.226Z,94388.66
2018-09-05T01:17:24.891Z,94396.02
2018-09-05T01:19:53.567Z,94393.34
2018-09-05T01:22:22.509Z,94399.60
2018-09-05T01:24:51.506Z,94397.59
2018-09-05T01:27:20.290Z,94399.19
2018-09-05T01:29:49.409Z,94397.41
2018-09-05T01:32:18.490Z,94401.06
2018-09-05T01:34:47.327Z,94399.33
2018-09-05T01:37:16.462Z,94397.63
2018-09-05T01:39:45.454Z,94400.55
2018-09-05T01:42:14.341Z,94405.83
2018-09-05T01:44:43.383Z,94397.66
2018-09-05T01:47:12.288Z,94393.70
2018-09-05T01:49:41.046Z,94400.67
2018-09-05T01:52:10.056Z,94390.53
2018-09-05T01:54:38.931Z,94391.47
2018-09-05T01:57:07.829Z,94380.62
2018-09-05T01:59:36.972Z,94389.77
2018-09-05T02:02:06.005Z,94387.03
2018-09-05T02:04:34.915Z,94379.53
2018-09-05T02:07:04.220Z,94388.60
2018-09-05T02:09:33.308Z,94386.78
2018-09-05T02:12:02.035Z,94383.75
2018-09-05T02:14:31.491Z,94381.80
2018-09-05T02:17:00.199Z,94381.72
2018-09-05T02:19:28.847Z,94385.88
2018-09-05T02:21:58.190Z,94391.49
2018-09-05T02:24:26.998Z,94395.31
2018-09-05T02:26:56.065Z,94397.91
2018-09-05T02:29:24.978Z,94398.58
2018-09-05T02:31:54.058Z,94405.02
2018-09-05T02:34:23.342Z,94412.48
2018-09-05T02:36:52.686Z,94412.08
2018-09-05T02:39:21.534Z,94413.73
2018-09-05T02:41:50.719Z,94420.42
2018-09-05T02:44:20.218Z,94427.00
2018-09-05T02:46:49.131Z,94423.58
2018-09-05T02:49:17.974Z,94425.06
2018-09-05T02:51:47.342Z,94426.51
2018-09-05T02:54:16.467Z,94431.31
2018-09-05T02:56:45.735Z,94438.72
2018-09-05T02:59:14.942Z,94432.98
2018-09-05T03:01:43.887Z,94432.98
2018-09-05T03:04:12.803Z,94434.38
2018-09-05T03:06:42.034Z,94435.41
2018-09-05T03:09:11.142Z,94433.80
2018-09-05T03:11:40.227Z,94433.52
2018-09-05T03:14:09.516Z,94431.17
2018-09-05T03:16:38.341Z,94430.63
2018-09-05T03:19:07.400Z,94427.22
2018-09-05T03:21:36.339Z,94434.46
2018-09-05T03:24:05.388Z,94430.11
2018-09-05T03:26:34.146Z,94434.44
2018-09-05T03:29:03.487Z,94423.58
2018-09-05T03:31:32.675Z,94429.52
2018-09-05T03:34:01.514Z,94430.53
2018-09-05T03:36:30.666Z,94437.14
2018-09-05T03:38:59.770Z,94439.13
2018-09-05T03:41:28.959Z,94376.64
2018-09-05T03:43:58.373Z,94432.43
2018-09-05T03:46:27.257Z,94434.09
2018-09-05T03:48:56.005Z,94439.00
2018-09-05T03:51:25.080Z,94441.45
2018-09-05T03:53:53.818Z,94441.98
2018-09-05T03:56:22.816Z,94442.53
2018-09-05T03:58:52.117Z,94449.38
2018-09-05T04:01:21.107Z,94458.16
2018-09-05T04:03:50.146Z,94459.67
2018-09-05T04:06:22.214Z,94455.19
2018-09-05T04:08:52.599Z,94458.11
2018-09-05T04:11:21.646Z,94463.42
2018-09-05T04:13:51.213Z,94465.59
2018-09-05T04:16:20.282Z,94458.82
2018-09-05T04:18:49.075Z,94467.16
2018-09-05T04:21:18.112Z,94462.83
2018-09-05T04:23:47.913Z,94467.92
2018-09-05T04:26:17.999Z,94469.67
2018-09-05T04:28:47.047Z,94472.97
2018-09-05T04:31:16.498Z,94475.95
2018-09-05T04:33:45.615Z,94463.42
2018-09-05T04:36:15.953Z,94315.72
2018-09-05T04:38:44.920Z,94480.81
2018-09-05T04:41:13.920Z,94491.22
2018-09-05T04:43:43.142Z,94490.05
2018-09-05T04:46:12.159Z,94498.01
2018-09-05T04:48:41.006Z,94497.70
2018-09-05T04:51:10.067Z,94500.28
2018-09-05T04:53:38.901Z,94500.05
2018-09-05T04:56:08.057Z,94497.64
2018-09-05T04:58:37.419Z,94494.58
2018-09-05T05:01:06.471Z,94499.38
2018-09-05T05:03:35.069Z,94496.08
2018-09-05T05:06:04.695Z,94506.65
2018-09-05T05:08:33.237Z,94506.77
2018-09-05T05:11:02.170Z,94503.55
2018-09-05T05:13:31.472Z,94503.41
2018-09-05T05:16:00.751Z,94510.91
2018-09-05T05:18:29.538Z,94507.21
2018-09-05T05:20:58.299Z,94502.93
2018-09-05T05:23:27.096Z,94508.41
2018-09-05T05:25:55.936Z,94509.59
2018-09-05T05:28:25.290Z,94513.20
2018-09-05T05:30:54.106Z,94508.53
2018-09-05T05:33:23.166Z,94515.38
2018-09-05T05:35:52.315Z,94505.34
2018-09-05T05:38:21.039Z,94510.03
2018-09-05T05:40:49.988Z,94507.34
2018-09-05T05:43:19.296Z,94502.00
2018-09-05T05:45:48.281Z,94502.48
2018-09-05T05:48:16.994Z,94510.35
2018-09-05T05:50:45.997Z,94495.29
2018-09-05T05:53:14.852Z,94505.84
2018-09-05T05:55:43.918Z,94510.84
2018-09-05T05:58:13.062Z,94509.76
2018-09-05T06:00:41.872Z,94507.05
2018-09-05T06:03:10.736Z,94504.86
2018-09-05T06:05:39.938Z,94511.92
2018-09-05T06:08:08.704Z,94504.06
2018-09-05T06:10:37.610Z,94503.00
2018-09-05T06:13:06.406Z,94504.93
2018-09-05T06:15:35.293Z,94502.03
2018-09-05T06:18:04.197Z,94501.21
2018-09-05T06:20:33.218Z,94505.37
2018-09-05T06:23:01.855Z,94501.98
2018-09-05T06:25:30.959Z,94509.11
2018-09-05T06:28:00.422Z,94512.50
2018-09-05T06:30:29.519Z,94515.23
2018-09-05T06:32:58.467Z,94516.01
2018-09-05T06:35:27.970Z,94520.31
2018-09-05T06:37:57.187Z,94508.82
2018-09-05T06:40:26.048Z,94514.10
2018-09-05T06:42:54.914Z,94506.52
2018-09-05T06:45:23.629Z,94504.73
2018-09-05T06:47:52.335Z,94500.47
2018-09-05T06:50:21.386Z,94512.00
2018-09-05T06:52:50.219Z,94497.11
2018-09-05T06:55:19.194Z,94491.58
2018-09-05T06:57:48.210Z,94499.79
2018-09-05T07:00:18.179Z,94497.91
2018-09-05T07:02:47.578Z,94488.47
2018-09-05T07:05:17.293Z,94500.92
2018-09-05T07:07:46.184Z,94500.33
2018-09-05T07:10:15.117Z,94498.11
2018-09-05T07:12:44.758Z,94492.94
2018-09-05T07:15:13.473Z,94494.47
2018-09-05T07:17:42.332Z,94503.25
2018-09-05T07:20:11.339Z,94497.63
2018-09-05T07:22:39.983Z,94502.95
2018-09-05T07:25:09.736Z,94498.84
2018-09-05T07:27:39.161Z,94505.08
2018-09-05T07:30:08.168Z,94502.17
2018-09-05T07:32:37.011Z,94505.13
2018-09-05T07:35:06.198Z,94498.44
2018-09-05T07:37:35.119Z,94507.91
2018-09-05T07:40:03.995Z,94508.73
2018-09-05T07:42:32.958Z,94509.78
2018-09-05T07:45:01.905Z,94502.92
2018-09-05T07:47:30.812Z,94499.77
2018-09-05T07:49:59.521Z,94510.66
2018-09-05T07:52:28.311Z,94509.12
2018-09-05T07:54:57.126Z,94518.69
2018-09-05T07:57:26.140Z,94519.66
2018-09-05T07:59:55.135Z,94503.12
2018-09-05T08:02:24.024Z,94503.95
2018-09-05T08:04:53.444Z,94500.47
2018-09-05T08:07:22.366Z,94506.52
2018-09-05T08:09:51.430Z,94508.02
2018-09-05T08:12:20.860Z,94504.33
2018-09-05T08:14:50.100Z,94502.02
2018-09-05T08:17:19.503Z,94504.24
2018-09-05T08:19:48.576Z,94507.89
2018-09-05T08:22:17.510Z,94496.54
2018-09-05T08:24:46.426Z,94487.86
2018-09-05T08:27:15.712Z,94490.05
2018-09-05T08:29:44.518Z,94484.45
2018-09-05T08:32:13.451Z,94486.03
2018-09-05T08:34:42.596Z,94477.71
2018-09-05T08:37:11.965Z,94483.37
2018-09-05T08:39:40.584Z,94480.42
2018-09-05T08:42:09.647Z,94481.06
2018-09-05T08:44:38.627Z,94478.74
2018-09-05T08:47:07.378Z,94474.38
2018-09-05T08:49:36.418Z,94479.39
2018-09-05T08:52:05.299Z,94475.84
2018-09-05T08:54:33.940Z,94466.89
2018-09-05T08:57:02.989Z,94486.95
2018-09-05T08:59:32.361Z,94477.13
2018-09-05T09:02:01.085Z,94478.23
2018-09-05T09:04:30.211Z,94481.64
2018-09-05T09:06:59.007Z,94477.66
2018-09-05T09:09:27.847Z,94478.65
2018-09-05T09:11:56.966Z,94480.66
2018-09-05T09:14:25.835Z,94472.66
2018-09-05T09:16:54.637Z,94477.44
2018-09-05T09:19:23.770Z,94464.99
2018-09-05T09:21:52.927Z,94466.29
2018-09-05T09:24:21.881Z,94457.00
2018-09-05T09:26:51.263Z,94467.79
2018-09-05T09:29:20.335Z,94462.98
2018-09-05T09:31:49.102Z,94449.59
2018-09-05T09:34:18.316Z,94466.89
2018-09-05T09:36:47.482Z,94448.38
2018-09-05T09:39:16.452Z,94461.17
2018-09-05T09:41:45.603Z,94446.89
2018-09-05T09:44:14.587Z,94458.20
2018-09-05T09:46:43.291Z,94469.50
2018-09-05T09:49:12.001Z,94434.97
2018-09-05T09:51:40.815Z,94462.94
2018-09-05T09:54:09.914Z,94435.14
2018-09-05T09:56:39.548Z,94438.53
2018-09-05T09:59:08.478Z,94440.70
2018-09-05T10:01:42.782Z,94443.44
2018-09-05T10:04:16.870Z,94440.80
2018-09-05T10:06:55.384Z,94440.31
2018-09-05T10:09:29.383Z,94430.23
2018-09-05T10:12:03.947Z,94436.62
2018-09-05T10:14:33.930Z,94436.58
2018-09-05T10:17:08.200Z,94453.16
2018-09-05T10:19:36.783Z,94431.22
2018-09-05T10:22:05.710Z,94419.00
2018-09-05T10:24:34.573Z,94417.98
2018-09-05T10:27:03.642Z,94440.06
2018-09-05T10:29:32.410Z,94420.81
2018-09-05T10:32:01.455Z,94423.11
2018-09-05T10:34:30.414Z,94413.64
2018-09-05T10:37:00.484Z,94422.04
2018-09-05T10:39:29.553Z,94415.86
2018-09-05T10:41:58.556Z,94410.33
2018-09-05T10:44:27.835Z,94402.83
2018-09-05T10:46:56.759Z,94412.39
2018-09-05T10:49:25.503Z,94406.23
2018-09-05T10:51:57.003Z,94395.32
2018-09-05T10:54:25.958Z,94400.50
2018-09-05T10:56:54.739Z,94399.22
2018-09-05T10:59:23.774Z,94390.92
2018-09-05T11:01:52.831Z,94380.59
2018-09-05T11:04:21.679Z,94399.17
2018-09-05T11:06:50.896Z,94395.12
2018-09-05T11:09:19.504Z,94391.06
2018-09-05T11:11:48.170Z,94385.98
2018-09-05T11:14:17.309Z,94391.09
2018-09-05T11:16:46.282Z,94377.77
2018-09-05T11:19:14.898Z,94399.86
2018-09-05T11:21:43.933Z,94388.19
2018-09-05T11:24:12.767Z,94381.06
2018-09-05T11:26:41.896Z,94374.18
2018-09-05T11:29:11.367Z,94378.19
2018-09-05T11:31:40.354Z,94363.59
2018-09-05T11:34:09.252Z,94361.23
2018-09-05T11:36:38.518Z,94367.75
2018-09-05T11:39:10.296Z,94364.22
2018-09-05T11:41:39.939Z,94374.84
2018-09-05T11:44:09.212Z,94368.47
2018-09-05T11:46:38.776Z,94368.64
2018-09-05T11:49:08.567Z,94359.56
2018-09-05T11:51:37.714Z,94348.16
2018-09-05T11:54:07.141Z,94360.41
2018-09-05T11:56:36.446Z,94364.94
2018-09-05T11:59:05.531Z,94356.00
2018-09-05T12:01:34.526Z,94348.83
2018-09-05T12:04:03.638Z,94343.23
2018-09-05T12:06:32.310Z,94333.06
2018-09-05T12:09:01.146Z,94339.52
2018-09-05T12:11:30.070Z,94343.76
2018-09-05T12:13:59.160Z,94340.19
2018-09-05T12:16:27.887Z,94340.94
2018-09-05T12:18:56.535Z,94338.63
2018-09-05T12:21:25.407Z,94341.23
2018-09-05T12:23:54.142Z,94346.80
2018-09-05T12:26:22.975Z,94331.56
2018-09-05T12:28:52.071Z,94328.75
2018-09-05T12:31:21.163Z,94327.46
2018-09-05T12:33:50.446Z,94331.31
2018-09-05T12:36:19.118Z,94325.18
2018-09-05T12:38:47.788Z,94324.00
2018-09-05T12:41:16.722Z,94321.91
2018-09-05T12:43:45.388Z,94314.41
2018-09-05T12:46:13.987Z,94305.73
2018-09-05T12:48:42.942Z,94315.98
2018-09-05T12:51:11.810Z,94316.05
2018-09-05T12:53:40.699Z,94319.69
2018-09-05T12:56:09.555Z,94324.14
2018-09-05T12:58:38.524Z,94318.38
2018-09-05T13:01:07.429Z,94317.13
2018-09-05T13:03:37.030Z,94316.15
2018-09-05T13:06:06.210Z,94297.17
2018-09-05T13:08:35.001Z,94319.02
2018-09-05T13:11:04.032Z,94311.52
2018-09-05T13:13:33.313Z,94312.73
2018-09-05T13:16:02.240Z,94319.59
2018-09-05T13:18:31.215Z,94311.56
2018-09-05T13:21:00.113Z,94313.78
2018-09-05T13:23:29.451Z,94310.36
2018-09-05T13:25:58.698Z,94317.65
2018-09-05T13:28:27.788Z,94307.78
2018-09-05T13:30:56.883Z,94309.52
2018-09-05T13:33:25.762Z,94302.69
2018-09-05T13:35:54.594Z,94306.58
2018-09-05T13:38:23.864Z,94297.27
2018-09-05T13:40:52.574Z,94308.66
2018-09-05T13:43:24.364Z,94315.66
2018-09-05T13:45:53.370Z,94318.78
2018-09-05T13:48:22.101Z,94323.34
2018-09-05T13:50:51.071Z,94322.14
2018-09-05T13:53:20.302Z,94322.25
2018-09-05T13:55:49.323Z,94345.34
2018-09-05T13:58:18.449Z,94344.87
2018-09-05T14:00:47.629Z,94340.11
2018-09-05T14:03:16.410Z,94336.27
2018-09-05T14:05:45.511Z,94344.12
2018-09-05T14:08:14.778Z,94340.36
2018-09-05T14:10:43.559Z,94345.48
2018-09-05T14:13:12.357Z,94332.77
2018-09-05T14:15:41.767Z,94337.47
2018-09-05T14:18:10.526Z,94338.84
2018-09-05T14:20:39.472Z,94354.57
2018-09-05T14:23:08.659Z,94349.62
2018-09-05T14:25:37.622Z,94359.70
2018-09-05T14:28:07.642Z,94355.41
2018-09-05T14:30:36.651Z,94362.18
2018-09-05T14:33:05.798Z,94360.80
2018-09-05T14:35:34.827Z,94359.58
2018-09-05T14:38:04.257Z,94368.16
2018-09-05T14:40:33.336Z,94357.10
2018-09-05T14:43:02.036Z,94357.88
2018-09-05T14:45:30.702Z,94349.62
2018-09-05T14:47:59.448Z,94361.95
2018-09-05T14:50:28.528Z,94366.48
2018-09-05T14:52:57.626Z,94372.11
2018-09-05T14:55:26.472Z,94372.12
2018-09-05T14:57:55.210Z,94375.16
2018-09-05T15:00:24.867Z,94378.91
2018-09-05T15:02:53.854Z,94384.77
2018-09-05T15:05:22.844Z,94389.77
2018-09-05T15:07:52.514Z,94385.86
2018-09-05T15:10:21.463Z,94389.00
2018-09-05T15:12:50.195Z,94385.86
2018-09-05T15:15:19.315Z,94389.45
2018-09-05T15:17:48.084Z,94373.08
2018-09-05T15:20:16.983Z,94383.06
2018-09-05T15:22:46.548Z,94372.48
2018-09-05T15:25:15.427Z,94387.48
2018-09-05T15:27:44.209Z,94382.34
2018-09-05T15:30:13.731Z,94369.98
2018-09-05T15:32:42.696Z,94378.33
2018-09-05T15:35:11.630Z,94379.59
2018-09-05T15:37:40.742Z,94387.66
2018-09-05T15:40:10.005Z,94394.73
2018-09-05T15:42:38.784Z,94392.88
2018-09-05T15:45:07.516Z,94393.44
2018-09-05T15:47:36.186Z,94393.97
2018-09-05T15:50:05.310Z,94410.05
2018-09-05T15:52:33.990Z,94393.73
2018-09-05T15:55:03.155Z,94407.70
2018-09-05T15:57:32.341Z,94402.95
2018-09-05T16:00:01.570Z,94404.75
2018-09-05T16:02:30.182Z,94412.69
2018-09-05T16:04:59.422Z,94414.64
2018-09-05T16:07:28.338Z,94415.34
2018-09-05T16:09:57.314Z,94412.38
2018-09-05T16:12:25.950Z,94407.41
2018-09-05T16:14:54.593Z,94410.26
2018-09-05T16:17:23.359Z,94413.73
2018-09-05T16:19:52.498Z,94413.84
2018-09-05T16:22:21.695Z,94407.36
2018-09-05T16:24:50.772Z,94415.99
2018-09-05T16:27:19.972Z,94416.13
2018-09-05T16:29:48.955Z,94414.81
2018-09-05T16:32:17.864Z,94418.26
2018-09-05T16:34:46.898Z,94417.52
2018-09-05T16:37:16.447Z,94415.99
2018-09-05T16:39:45.448Z,94415.73
2018-09-05T16:42:18.006Z,94416.84
2018-09-05T16:44:46.851Z,94420.55
2018-09-05T16:47:15.819Z,94422.80
2018-09-05T16:49:45.231Z,94423.23
2018-09-05T16:52:14.386Z,94422.58
2018-09-05T16:54:43.207Z,94432.67
2018-09-05T16:57:12.424Z,94423.45
2018-09-05T16:59:41.239Z,94424.90
2018-09-05T17:02:10.219Z,94429.78
2018-09-05T17:04:39.534Z,94430.64
2018-09-05T17:07:08.587Z,94435.16
2018-09-05T17:09:38.061Z,94428.42
2018-09-05T17:12:07.325Z,94427.75
2018-09-05T17:14:36.215Z,94429.37
2018-09-05T17:17:08.847Z,94435.50
2018-09-05T17:19:37.796Z,94434.25
2018-09-05T17:22:06.879Z,94438.09
2018-09-05T17:24:37.958Z,94431.84
2018-09-05T17:27:07.082Z,94438.22
2018-09-05T17:29:36.179Z,94441.45
2018-09-05T17:32:05.804Z,94433.71
2018-09-05T17:34:34.828Z,94444.87
2018-09-05T17:37:03.591Z,94440.97
2018-09-05T17:39:32.727Z,94446.50
2018-09-05T17:42:01.521Z,94452.28
2018-09-05T17:44:30.177Z,94451.30
2018-09-05T17:46:59.271Z,94468.27
2018-09-05T17:49:28.041Z,94461.17
2018-09-05T17:51:57.143Z,94470.52
2018-09-05T17:54:26.394Z,94471.76
2018-09-05T17:56:55.768Z,94477.89
2018-09-05T17:59:24.961Z,94474.38
2018-09-05T18:01:54.011Z,94487.29
2018-09-05T18:04:23.671Z,94475.09
2018-09-05T18:06:52.758Z,94488.92
2018-09-05T18:09:21.842Z,94493.66
2018-09-05T18:11:50.806Z,94496.59
2018-09-05T18:14:19.491Z,94491.68
2018-09-05T18:16:48.507Z,94492.27
2018-09-05T18:19:17.590Z,94493.97
2018-09-05T18:21:46.600Z,94491.21
2018-09-05T18:24:15.564Z,94491.87
2018-09-05T18:26:44.710Z,94484.48
2018-09-05T18:29:13.624Z,94492.46
2018-09-05T18:31:42.751Z,94491.83
2018-09-05T18:34:11.590Z,94487.50
2018-09-05T18:36:40.508Z,94486.72
2018-09-05T18:39:09.868Z,94492.22
2018-09-05T18:41:39.290Z,94492.14
2018-09-05T18:44:08.182Z,94497.97
2018-09-05T18:46:37.349Z,94491.07
2018-09-05T18:49:06.804Z,94496.89
2018-09-05T18:51:35.585Z,94496.08
2018-09-05T18:54:04.494Z,94490.14
2018-09-05T18:56:33.664Z,94492.55
2018-09-05T18:59:02.999Z,94480.95
2018-09-05T19:01:31.939Z,94493.34
2018-09-05T19:04:01.386Z,94496.14
2018-09-05T19:06:30.345Z,94489.38
2018-09-05T19:08:58.937Z,94489.66
2018-09-05T19:11:27.922Z,94496.14
2018-09-05T19:13:56.604Z,94492.18
2018-09-05T19:16:25.487Z,94491.30
2018-09-05T19:18:54.973Z,94482.89
2018-09-05T19:21:23.943Z,94484.19
2018-09-05T19:23:53.051Z,94489.03
2018-09-05T19:26:22.454Z,94488.93
2018-09-05T19:28:51.354Z,94480.71
2018-09-05T19:31:20.055Z,94479.78
2018-09-05T19:33:49.373Z,94494.33
2018-09-05T19:36:18.032Z,94486.22
2018-09-05T19:38:46.866Z,94493.68
2018-09-05T19:41:15.941Z,94491.50
2018-09-05T19:43:44.739Z,94500.85
2018-09-05T19:46:13.734Z,94495.48
2018-09-05T19:48:42.834Z,94489.76
2018-09-05T19:51:11.906Z,94489.41
2018-09-05T19:53:40.814Z,94491.60
2018-09-05T19:56:09.936Z,94490.70
2018-09-05T19:58:39.305Z,94481.64
2018-09-05T20:01:08.142Z,94481.03
2018-09-05T20:03:37.506Z,94479.34
2018-09-05T20:06:06.244Z,94483.28
2018-09-05T20:08:35.110Z,94477.52
2018-09-05T20:11:04.258Z,94474.41
2018-09-05T20:13:33.329Z,94476.30
2018-09-05T20:16:02.143Z,94204.98
2018-09-05T20:18:31.364Z,94473.11
2018-09-05T20:21:00.379Z,94465.73
2018-09-05T20:23:29.896Z,94468.80
2018-09-05T20:25:59.119Z,94467.83
2018-09-05T20:28:27.861Z,94471.32
2018-09-05T20:30:56.938Z,94472.23
2018-09-05T20:33:26.001Z,94468.37
2018-09-05T20:35:54.947Z,94468.78
2018-09-05T20:38:23.669Z,94472.23
2018-09-05T20:40:52.658Z,94475.10
2018-09-05T20:43:21.512Z,94473.53
2018-09-05T20:45:50.525Z,94473.88
2018-09-05T20:48:19.512Z,94471.95
2018-09-05T20:50:48.339Z,94476.45
2018-09-05T20:53:17.238Z,94470.19
2018-09-05T20:55:46.686Z,94466.33
2018-09-05T20:58:15.579Z,94467.55
2018-09-05T21:00:44.518Z,94473.72
2018-09-05T21:03:14.001Z,94476.36
2018-09-05T21:05:42.985Z,94485.86
2018-09-05T21:08:12.006Z,94490.64
2018-09-05T21:10:40.994Z,94482.50
2018-09-05T21:13:09.874Z,94479.78
2018-09-05T21:15:40.072Z,94482.43
2018-09-05T21:18:09.558Z,94484.19
2018-09-05T21:20:38.573Z,94487.02
2018-09-05T21:23:07.458Z,94488.00
2018-09-05T21:25:36.367Z,94478.75
2018-09-05T21:28:05.143Z,94474.16
2018-09-05T21:30:34.527Z,94471.95
2018-09-05T21:33:10.423Z,94469.91
2018-09-05T21:35:39.192Z,94477.05
2018-09-05T21:38:07.879Z,94471.95
2018-09-05T21:40:36.869Z,94473.78
2018-09-05T21:43:05.695Z,94473.25
2018-09-05T21:45:34.461Z,94468.97
2018-09-05T21:48:03.646Z,94471.25
2018-09-05T21:50:32.450Z,94462.63
2018-09-05T21:53:01.455Z,94464.15
2018-09-05T21:55:30.532Z,94476.45
2018-09-05T21:57:59.427Z,94469.00
2018-09-05T22:00:28.540Z,94466.45
2018-09-05T22:02:57.456Z,94468.02
2018-09-05T22:05:26.686Z,94455.80
2018-09-05T22:07:55.295Z,94447.89
2018-09-05T22:10:24.055Z,94451.28
2018-09-05T22:12:52.957Z,94452.69
2018-09-05T22:15:21.767Z,94459.03
2018-09-05T22:17:50.421Z,94459.92
2018-09-05T22:20:19.675Z,94456.23
2018-09-05T22:22:48.635Z,94460.60
2018-09-05T22:25:17.357Z,94465.02
2018-09-05T22:27:46.601Z,94465.88
2018-09-05T22:30:15.332Z,94456.69
2018-09-05T22:32:44.424Z,94452.41
2018-09-05T22:35:13.539Z,94450.33
2018-09-05T22:37:42.210Z,94456.45
2018-09-05T22:40:10.886Z,94457.11
2018-09-05T22:42:49.960Z,94449.09
2018-09-05T22:45:29.750Z,94454.28
2018-09-05T22:50:22.638Z,94459.54
2018-09-05T22:55:16.383Z,94457.02
2018-09-05T23:00:02.446Z,94455.83
2018-09-05T23:04:46.897Z,94450.34
2018-09-05T23:07:26.578Z,94457.52
2018-09-05T23:10:06.199Z,94456.72
2018-09-05T23:12:46.215Z,94459.69
2018-09-05T23:15:26.090Z,94459.76
2018-09-05T23:20:09.269Z,94459.23
2018-09-05T23:22:49.234Z,94458.33
2018-09-05T23:25:18.392Z,94465.02
2018-09-05T23:27:47.351Z,94460.55
2018-09-05T23:30:16.164Z,94467.05
2018-09-05T23:32:45.193Z,94459.94
2018-09-05T23:35:13.963Z,94465.95
2018-09-05T23:37:42.701Z,94463.31
2018-09-05T23:40:11.720Z,94465.49
2018-09-05T23:42:40.528Z,94471.23
2018-09-05T23:45:09.246Z,94467.08
2018-09-05T23:47:38.304Z,94465.81
2018-09-05T23:50:07.681Z,94467.41
2018-09-05T23:52:36.511Z,94473.75
2018-09-05T23:55:06.242Z,94474.88
2018-09-05T23:57:35.512Z,94477.10
